sensor_id;sensor_type;location;lat;lon;timestamp;pressure;altitude;pressure_sealevel;temperature;humidity
20079;BME280;10199;48.850;8.924;2023-11-22T00:02:04;97553.25;;;4.70;100.00
20079;BME280;10199;48.850;8.924;2023-11-22T00:04:31;97307.34;;;3.13;100.00
20079;BME280;10199;48.850;8.924;2023-11-22T00:07:01;97553.56;;;4.30;100.00
20079;BME280;10199;48.850;8.924;2023-11-22T00:09:29;97557.44;;;4.35;100.00
20079;BME280;10199;48.850;8.924;2023-11-22T00:11:57;97558.78;;;4.39;100.00
20079;BME280;10199;48.850;8.924;2023-11-22T00:14:27;97532.59;;;4.02;100.00
20079;BME280;10199;48.850;8.924;2023-11-22T00:16:55;97564.75;;;4.22;100.00
20079;BME280;10199;48.850;8.924;2023-11-22T00:19:24;97576.38;;;4.10;100.00
20079;BME280;10199;48.850;8.924;2023-11-22T00:21:52;97573.03;;;4.18;100.00
20079;BME280;10199;48.850;8.924;2023-11-22T00:24:22;97570.31;;;4.09;100.00
20079;BME280;10199;48.850;8.924;2023-11-22T00:26:50;97576.94;;;4.04;100.00
20079;BME280;10199;48.850;8.924;2023-11-22T00:29:18;97584.97;;;3.93;100.00
20079;BME280;10199;48.850;8.924;2023-11-22T00:31:46;97595.41;;;4.02;100.00
20079;BME280;10199;48.850;8.924;2023-11-22T00:34:14;97593.25;;;3.78;100.00
20079;BME280;10199;48.850;8.924;2023-11-22T00:36:43;97601.50;;;3.83;100.00
20079;BME280;10199;48.850;8.924;2023-11-22T00:39:12;97604.69;;;3.87;100.00
20079;BME280;10199;48.850;8.924;2023-11-22T00:41:41;97610.88;;;3.76;100.00
20079;BME280;10199;48.850;8.924;2023-11-22T00:44:09;97605.69;;;3.57;100.00
20079;BME280;10199;48.850;8.924;2023-11-22T00:46:37;97607.19;;;3.69;100.00
20079;BME280;10199;48.850;8.924;2023-11-22T00:49:05;97564.38;;;3.32;100.00
20079;BME280;10199;48.850;8.924;2023-11-22T00:51:35;97605.94;;;3.44;100.00
20079;BME280;10199;48.850;8.924;2023-11-22T00:54:03;97613.13;;;3.62;100.00
20079;BME280;10199;48.850;8.924;2023-11-22T00:56:31;97615.72;;;3.71;100.00
20079;BME280;10199;48.850;8.924;2023-11-22T00:59:02;97617.25;;;3.64;100.00
20079;BME280;10199;48.850;8.924;2023-11-22T01:01:30;97623.16;;;3.47;100.00
20079;BME280;10199;48.850;8.924;2023-11-22T01:03:59;97627.41;;;3.38;100.00
20079;BME280;10199;48.850;8.924;2023-11-22T01:06:27;97464.50;;;2.32;100.00
20079;BME280;10199;48.850;8.924;2023-11-22T01:08:55;97634.84;;;3.43;100.00
20079;BME280;10199;48.850;8.924;2023-11-22T01:11:23;97548.56;;;2.85;100.00
20079;BME280;10199;48.850;8.924;2023-11-22T01:13:51;97641.84;;;3.33;100.00
20079;BME280;10199;48.850;8.924;2023-11-22T01:16:21;97634.97;;;3.32;100.00
20079;BME280;10199;48.850;8.924;2023-11-22T01:18:49;97643.22;;;3.37;100.00
20079;BME280;10199;48.850;8.924;2023-11-22T01:21:28;97646.94;;;3.34;100.00
20079;BME280;10199;48.850;8.924;2023-11-22T01:23:56;97652.34;;;3.52;100.00
20079;BME280;10199;48.850;8.924;2023-11-22T01:26:25;97651.06;;;3.37;100.00
20079;BME280;10199;48.850;8.924;2023-11-22T01:28:53;97647.22;;;3.31;100.00
20079;BME280;10199;48.850;8.924;2023-11-22T01:31:22;97657.53;;;3.33;100.00
20079;BME280;10199;48.850;8.924;2023-11-22T01:33:50;97656.69;;;3.23;100.00
20079;BME280;10199;48.850;8.924;2023-11-22T01:36:18;97656.97;;;3.29;100.00
20079;BME280;10199;48.850;8.924;2023-11-22T01:38:46;97658.22;;;3.35;100.00
20079;BME280;10199;48.850;8.924;2023-11-22T01:41:14;97656.81;;;3.21;100.00
20079;BME280;10199;48.850;8.924;2023-11-22T01:43:43;97656.97;;;3.19;100.00
20079;BME280;10199;48.850;8.924;2023-11-22T01:46:17;97656.53;;;3.14;100.00
20079;BME280;10199;48.850;8.924;2023-11-22T01:48:51;97677.44;;;3.14;100.00
20079;BME280;10199;48.850;8.924;2023-11-22T01:51:20;97674.16;;;3.12;100.00
20079;BME280;10199;48.850;8.924;2023-11-22T01:53:50;97685.97;;;3.07;100.00
20079;BME280;10199;48.850;8.924;2023-11-22T01:56:20;97644.63;;;2.72;99.82
20079;BME280;10199;48.850;8.924;2023-11-22T01:58:49;97688.38;;;2.89;99.45
20079;BME280;10199;48.850;8.924;2023-11-22T02:01:18;97693.94;;;3.05;100.00
20079;BME280;10199;48.850;8.924;2023-11-22T02:03:47;97699.22;;;2.84;99.35
20079;BME280;10199;48.850;8.924;2023-11-22T02:06:17;97697.97;;;2.79;99.65
20079;BME280;10199;48.850;8.924;2023-11-22T02:08:45;97702.63;;;2.75;99.81
20079;BME280;10199;48.850;8.924;2023-11-22T02:11:13;97734.28;;;2.82;99.63
20079;BME280;10199;48.850;8.924;2023-11-22T02:13:48;97710.63;;;2.83;99.13
20079;BME280;10199;48.850;8.924;2023-11-22T02:16:17;97718.34;;;2.85;99.91
20079;BME280;10199;48.850;8.924;2023-11-22T02:18:46;97710.94;;;2.90;100.00
20079;BME280;10199;48.850;8.924;2023-11-22T02:21:17;97640.78;;;2.15;99.02
20079;BME280;10199;48.850;8.924;2023-11-22T02:23:46;97679.94;;;2.45;98.76
20079;BME280;10199;48.850;8.924;2023-11-22T02:26:16;97694.38;;;2.49;98.85
20079;BME280;10199;48.850;8.924;2023-11-22T02:28:45;97714.00;;;2.65;98.19
20079;BME280;10199;48.850;8.924;2023-11-22T02:31:16;97712.09;;;2.46;97.30
20079;BME280;10199;48.850;8.924;2023-11-22T02:33:44;97727.63;;;2.47;98.15
20079;BME280;10199;48.850;8.924;2023-11-22T02:36:12;97734.50;;;2.69;98.65
20079;BME280;10199;48.850;8.924;2023-11-22T02:38:40;97700.09;;;2.13;97.57
20079;BME280;10199;48.850;8.924;2023-11-22T02:41:10;97712.28;;;2.33;98.48
20079;BME280;10199;48.850;8.924;2023-11-22T02:43:38;97737.50;;;2.23;98.08
20079;BME280;10199;48.850;8.924;2023-11-22T02:46:08;97741.56;;;2.16;98.98
20079;BME280;10199;48.850;8.924;2023-11-22T02:48:36;97739.72;;;2.07;98.08
20079;BME280;10199;48.850;8.924;2023-11-22T02:51:04;97743.53;;;2.03;98.72
20079;BME280;10199;48.850;8.924;2023-11-22T02:53:33;97759.25;;;1.91;98.95
20079;BME280;10199;48.850;8.924;2023-11-22T02:56:01;97756.88;;;1.88;99.27
20079;BME280;10199;48.850;8.924;2023-11-22T02:58:30;97749.56;;;1.71;100.00
20079;BME280;10199;48.850;8.924;2023-11-22T03:00:58;97769.84;;;1.79;100.00
20079;BME280;10199;48.850;8.924;2023-11-22T03:03:26;97772.00;;;1.63;100.00
20079;BME280;10199;48.850;8.924;2023-11-22T03:05:55;97783.97;;;1.76;100.00
20079;BME280;10199;48.850;8.924;2023-11-22T03:08:23;97781.22;;;1.67;100.00
20079;BME280;10199;48.850;8.924;2023-11-22T03:10:56;97755.06;;;1.57;100.00
20079;BME280;10199;48.850;8.924;2023-11-22T03:13:24;97792.84;;;1.74;100.00
20079;BME280;10199;48.850;8.924;2023-11-22T03:15:53;97792.91;;;1.95;100.00
20079;BME280;10199;48.850;8.924;2023-11-22T03:18:22;97801.72;;;1.82;100.00
20079;BME280;10199;48.850;8.924;2023-11-22T03:20:50;97801.81;;;1.92;100.00
20079;BME280;10199;48.850;8.924;2023-11-22T03:23:20;97801.22;;;1.88;100.00
20079;BME280;10199;48.850;8.924;2023-11-22T03:25:49;97794.50;;;2.07;99.98
20079;BME280;10199;48.850;8.924;2023-11-22T03:28:17;97791.19;;;2.05;100.00
20079;BME280;10199;48.850;8.924;2023-11-22T03:30:44;97787.78;;;2.25;100.00
20079;BME280;10199;48.850;8.924;2023-11-22T03:33:14;97796.53;;;2.03;99.73
20079;BME280;10199;48.850;8.924;2023-11-22T03:35:42;97795.25;;;1.98;99.88
20079;BME280;10199;48.850;8.924;2023-11-22T03:38:10;97805.41;;;2.12;100.00
20079;BME280;10199;48.850;8.924;2023-11-22T03:40:38;97802.75;;;2.23;100.00
20079;BME280;10199;48.850;8.924;2023-11-22T03:43:07;97804.63;;;2.00;100.00
20079;BME280;10199;48.850;8.924;2023-11-22T03:45:36;97804.94;;;2.07;100.00
20079;BME280;10199;48.850;8.924;2023-11-22T03:48:05;97812.06;;;2.05;100.00
20079;BME280;10199;48.850;8.924;2023-11-22T03:50:34;97825.53;;;2.21;100.00
20079;BME280;10199;48.850;8.924;2023-11-22T03:53:02;97818.13;;;2.05;100.00
20079;BME280;10199;48.850;8.924;2023-11-22T03:55:30;97811.63;;;2.00;99.53
20079;BME280;10199;48.850;8.924;2023-11-22T03:57:58;97752.72;;;1.43;99.48
20079;BME280;10199;48.850;8.924;2023-11-22T04:00:27;97831.81;;;1.86;99.65
20079;BME280;10199;48.850;8.924;2023-11-22T04:02:55;97836.28;;;1.96;100.00
20079;BME280;10199;48.850;8.924;2023-11-22T04:05:27;97830.13;;;1.97;99.52
20079;BME280;10199;48.850;8.924;2023-11-22T04:07:56;97831.34;;;1.81;99.13
20079;BME280;10199;48.850;8.924;2023-11-22T04:10:24;97799.84;;;1.62;99.30
20079;BME280;10199;48.850;8.924;2023-11-22T04:12:52;97828.41;;;1.75;97.84
20079;BME280;10199;48.850;8.924;2023-11-22T04:15:20;97790.72;;;1.68;99.34
20079;BME280;10199;48.850;8.924;2023-11-22T04:17:48;97634.38;;;0.37;97.87
20079;BME280;10199;48.850;8.924;2023-11-22T04:20:17;97831.09;;;1.84;97.68
20079;BME280;10199;48.850;8.924;2023-11-22T04:22:45;97782.94;;;1.45;97.64
20079;BME280;10199;48.850;8.924;2023-11-22T04:25:14;97846.53;;;1.76;97.02
20079;BME280;10199;48.850;8.924;2023-11-22T04:27:42;97842.50;;;1.83;98.14
20079;BME280;10199;48.850;8.924;2023-11-22T04:30:11;97845.00;;;1.74;97.52
20079;BME280;10199;48.850;8.924;2023-11-22T04:32:41;97826.75;;;1.51;96.79
20079;BME280;10199;48.850;8.924;2023-11-22T04:35:09;97856.25;;;1.74;98.73
20079;BME280;10199;48.850;8.924;2023-11-22T04:37:37;97861.69;;;1.71;99.59
20079;BME280;10199;48.850;8.924;2023-11-22T04:40:06;97867.63;;;1.62;98.42
20079;BME280;10199;48.850;8.924;2023-11-22T04:42:36;97872.81;;;1.73;97.30
20079;BME280;10199;48.850;8.924;2023-11-22T04:45:05;97886.94;;;1.71;98.92
20079;BME280;10199;48.850;8.924;2023-11-22T04:47:33;97886.59;;;1.75;98.40
20079;BME280;10199;48.850;8.924;2023-11-22T04:50:01;97890.84;;;1.54;96.59
20079;BME280;10199;48.850;8.924;2023-11-22T04:52:29;97898.91;;;1.62;96.49
20079;BME280;10199;48.850;8.924;2023-11-22T04:54:58;97903.16;;;1.63;96.89
20079;BME280;10199;48.850;8.924;2023-11-22T04:57:26;97903.88;;;1.65;97.94
20079;BME280;10199;48.850;8.924;2023-11-22T04:59:56;97911.94;;;1.73;97.69
20079;BME280;10199;48.850;8.924;2023-11-22T05:02:24;97909.09;;;1.65;96.96
20079;BME280;10199;48.850;8.924;2023-11-22T05:04:53;97915.97;;;1.55;95.96
20079;BME280;10199;48.850;8.924;2023-11-22T05:07:21;97912.06;;;1.60;95.60
20079;BME280;10199;48.850;8.924;2023-11-22T05:09:49;97913.13;;;1.58;96.60
20079;BME280;10199;48.850;8.924;2023-11-22T05:12:17;97917.88;;;1.53;96.29
20079;BME280;10199;48.850;8.924;2023-11-22T05:14:45;97920.00;;;1.59;95.29
20079;BME280;10199;48.850;8.924;2023-11-22T05:17:14;97927.34;;;1.43;95.06
20079;BME280;10199;48.850;8.924;2023-11-22T05:19:42;97830.09;;;1.09;96.51
20079;BME280;10199;48.850;8.924;2023-11-22T05:22:10;97931.38;;;1.58;95.80
20079;BME280;10199;48.850;8.924;2023-11-22T05:24:38;97932.91;;;1.60;96.71
20079;BME280;10199;48.850;8.924;2023-11-22T05:27:08;97936.13;;;1.75;96.47
20079;BME280;10199;48.850;8.924;2023-11-22T05:29:36;97933.75;;;1.61;95.95
20079;BME280;10199;48.850;8.924;2023-11-22T05:32:06;97943.94;;;1.42;94.75
20079;BME280;10199;48.850;8.924;2023-11-22T05:34:35;97929.34;;;1.39;94.85
20079;BME280;10199;48.850;8.924;2023-11-22T05:37:04;97930.91;;;1.53;94.71
20079;BME280;10199;48.850;8.924;2023-11-22T05:39:32;97934.81;;;1.58;95.85
20079;BME280;10199;48.850;8.924;2023-11-22T05:42:00;97932.56;;;1.54;95.79
20079;BME280;10199;48.850;8.924;2023-11-22T05:44:29;97930.44;;;1.48;95.00
20079;BME280;10199;48.850;8.924;2023-11-22T05:46:57;97892.41;;;1.34;95.04
20079;BME280;10199;48.850;8.924;2023-11-22T05:49:25;97866.69;;;1.18;97.08
20079;BME280;10199;48.850;8.924;2023-11-22T05:51:55;97940.38;;;1.65;97.60
20079;BME280;10199;48.850;8.924;2023-11-22T05:54:23;97943.69;;;1.56;95.28
20079;BME280;10199;48.850;8.924;2023-11-22T05:56:51;97941.81;;;1.69;97.00
20079;BME280;10199;48.850;8.924;2023-11-22T05:59:19;97951.53;;;1.67;96.55
20079;BME280;10199;48.850;8.924;2023-11-22T06:01:47;97960.53;;;1.63;96.14
20079;BME280;10199;48.850;8.924;2023-11-22T06:04:14;97961.00;;;1.68;97.72
20079;BME280;10199;48.850;8.924;2023-11-22T06:06:43;97949.38;;;1.61;97.82
20079;BME280;10199;48.850;8.924;2023-11-22T06:09:12;97982.81;;;1.56;95.56
20079;BME280;10199;48.850;8.924;2023-11-22T06:11:41;97979.38;;;1.55;95.24
20079;BME280;10199;48.850;8.924;2023-11-22T06:14:09;97984.69;;;1.65;95.12
20079;BME280;10199;48.850;8.924;2023-11-22T06:16:37;97992.75;;;1.73;96.50
20079;BME280;10199;48.850;8.924;2023-11-22T06:19:05;97992.44;;;1.78;97.00
20079;BME280;10199;48.850;8.924;2023-11-22T06:21:34;97992.63;;;1.52;94.50
20079;BME280;10199;48.850;8.924;2023-11-22T06:24:03;98006.50;;;1.64;95.29
20079;BME280;10199;48.850;8.924;2023-11-22T06:26:36;98000.50;;;1.75;96.53
20079;BME280;10199;48.850;8.924;2023-11-22T06:29:06;98005.47;;;1.78;96.17
20079;BME280;10199;48.850;8.924;2023-11-22T06:31:35;98000.09;;;1.57;95.21
20079;BME280;10199;48.850;8.924;2023-11-22T06:34:03;98005.59;;;1.76;97.33
20079;BME280;10199;48.850;8.924;2023-11-22T06:36:31;98013.59;;;1.51;96.17
20079;BME280;10199;48.850;8.924;2023-11-22T06:38:59;98015.28;;;1.63;95.32
20079;BME280;10199;48.850;8.924;2023-11-22T06:41:27;98012.19;;;1.58;95.35
20079;BME280;10199;48.850;8.924;2023-11-22T06:43:57;98014.38;;;1.86;96.40
20079;BME280;10199;48.850;8.924;2023-11-22T06:46:25;98008.16;;;1.54;94.99
20079;BME280;10199;48.850;8.924;2023-11-22T06:48:54;98010.50;;;1.35;95.50
20079;BME280;10199;48.850;8.924;2023-11-22T06:51:22;98016.16;;;1.28;94.90
20079;BME280;10199;48.850;8.924;2023-11-22T06:53:50;98021.31;;;1.52;95.95
20079;BME280;10199;48.850;8.924;2023-11-22T06:56:19;98028.78;;;1.11;94.38
20079;BME280;10199;48.850;8.924;2023-11-22T06:58:47;98039.25;;;1.22;93.88
20079;BME280;10199;48.850;8.924;2023-11-22T07:01:16;98036.16;;;1.17;93.50
20079;BME280;10199;48.850;8.924;2023-11-22T07:03:44;97871.19;;;0.00;92.92
20079;BME280;10199;48.850;8.924;2023-11-22T07:06:12;98042.44;;;1.25;93.67
20079;BME280;10199;48.850;8.924;2023-11-22T07:08:40;98044.97;;;1.03;92.06
20079;BME280;10199;48.850;8.924;2023-11-22T07:11:09;98046.44;;;1.18;93.29
20079;BME280;10199;48.850;8.924;2023-11-22T07:13:38;98043.09;;;1.05;92.97
20079;BME280;10199;48.850;8.924;2023-11-22T07:16:07;98062.81;;;0.97;92.58
20079;BME280;10199;48.850;8.924;2023-11-22T07:18:37;98060.44;;;0.93;91.45
20079;BME280;10199;48.850;8.924;2023-11-22T07:21:06;98065.00;;;0.66;90.43
20079;BME280;10199;48.850;8.924;2023-11-22T07:23:34;98068.34;;;0.68;88.55
20079;BME280;10199;48.850;8.924;2023-11-22T07:26:02;98075.81;;;0.73;88.07
20079;BME280;10199;48.850;8.924;2023-11-22T07:28:30;98074.34;;;0.45;86.93
20079;BME280;10199;48.850;8.924;2023-11-22T07:30:58;98087.97;;;0.48;86.69
20079;BME280;10199;48.850;8.924;2023-11-22T07:33:28;98093.50;;;0.44;87.63
20079;BME280;10199;48.850;8.924;2023-11-22T07:35:58;98096.72;;;0.47;87.50
20079;BME280;10199;48.850;8.924;2023-11-22T07:38:26;98103.97;;;0.55;89.42
20079;BME280;10199;48.850;8.924;2023-11-22T07:40:56;98105.28;;;0.37;87.64
20079;BME280;10199;48.850;8.924;2023-11-22T07:43:24;98118.88;;;0.53;89.47
20079;BME280;10199;48.850;8.924;2023-11-22T07:45:52;98124.91;;;0.53;87.74
20079;BME280;10199;48.850;8.924;2023-11-22T07:48:20;98114.06;;;0.59;88.61
20079;BME280;10199;48.850;8.924;2023-11-22T07:50:49;98112.53;;;0.44;87.08
20079;BME280;10199;48.850;8.924;2023-11-22T07:53:20;98108.38;;;0.42;87.40
20079;BME280;10199;48.850;8.924;2023-11-22T07:55:48;98106.03;;;0.62;88.89
20079;BME280;10199;48.850;8.924;2023-11-22T07:58:16;98112.75;;;0.41;87.56
20079;BME280;10199;48.850;8.924;2023-11-22T08:00:44;98099.03;;;0.39;86.90
20079;BME280;10199;48.850;8.924;2023-11-22T08:03:12;98114.41;;;0.42;86.18
20079;BME280;10199;48.850;8.924;2023-11-22T08:05:42;98104.41;;;0.49;86.30
20079;BME280;10199;48.850;8.924;2023-11-22T08:08:14;98122.53;;;0.50;86.95
20079;BME280;10199;48.850;8.924;2023-11-22T08:10:44;98120.31;;;0.57;88.03
20079;BME280;10199;48.850;8.924;2023-11-22T08:13:14;98105.56;;;0.45;86.31
20079;BME280;10199;48.850;8.924;2023-11-22T08:15:42;98111.88;;;0.53;86.82
20079;BME280;10199;48.850;8.924;2023-11-22T08:18:13;98107.91;;;0.60;87.55
20079;BME280;10199;48.850;8.924;2023-11-22T08:20:43;98111.50;;;0.83;87.50
20079;BME280;10199;48.850;8.924;2023-11-22T08:23:11;98132.56;;;0.68;89.59
20079;BME280;10199;48.850;8.924;2023-11-22T08:25:40;98114.34;;;0.68;86.40
20079;BME280;10199;48.850;8.924;2023-11-22T08:28:09;98075.13;;;0.21;86.39
20079;BME280;10199;48.850;8.924;2023-11-22T08:30:38;98105.47;;;0.46;87.33
20079;BME280;10199;48.850;8.924;2023-11-22T08:33:08;98110.22;;;0.52;88.09
20079;BME280;10199;48.850;8.924;2023-11-22T08:35:36;98106.09;;;0.37;87.27
20079;BME280;10199;48.850;8.924;2023-11-22T08:38:04;98105.03;;;0.52;86.83
20079;BME280;10199;48.850;8.924;2023-11-22T08:40:36;98109.50;;;0.50;87.93
20079;BME280;10199;48.850;8.924;2023-11-22T08:43:04;98115.41;;;0.65;89.35
20079;BME280;10199;48.850;8.924;2023-11-22T08:45:34;98118.78;;;0.42;88.04
20079;BME280;10199;48.850;8.924;2023-11-22T08:48:02;98025.72;;;-0.04;89.64
20079;BME280;10199;48.850;8.924;2023-11-22T08:50:31;98122.13;;;0.31;87.98
20079;BME280;10199;48.850;8.924;2023-11-22T08:52:59;98131.31;;;0.73;87.07
20079;BME280;10199;48.850;8.924;2023-11-22T08:55:27;98130.88;;;0.30;87.69
20079;BME280;10199;48.850;8.924;2023-11-22T08:57:55;98130.88;;;0.79;88.03
20079;BME280;10199;48.850;8.924;2023-11-22T09:00:23;98131.25;;;0.49;86.83
20079;BME280;10199;48.850;8.924;2023-11-22T09:02:56;98128.09;;;0.70;87.46
20079;BME280;10199;48.850;8.924;2023-11-22T09:05:24;98129.97;;;0.68;87.97
20079;BME280;10199;48.850;8.924;2023-11-22T09:07:53;98119.53;;;0.80;88.91
20079;BME280;10199;48.850;8.924;2023-11-22T09:10:22;98123.06;;;0.79;87.06
20079;BME280;10199;48.850;8.924;2023-11-22T09:12:50;98122.88;;;0.70;85.48
20079;BME280;10199;48.850;8.924;2023-11-22T09:15:18;98101.25;;;0.56;86.11
20079;BME280;10199;48.850;8.924;2023-11-22T09:17:52;98115.38;;;0.78;85.23
20079;BME280;10199;48.850;8.924;2023-11-22T09:20:23;98115.31;;;1.03;85.74
20079;BME280;10199;48.850;8.924;2023-11-22T09:22:52;98113.81;;;0.75;86.96
20079;BME280;10199;48.850;8.924;2023-11-22T09:25:22;98095.47;;;0.77;87.07
20079;BME280;10199;48.850;8.924;2023-11-22T09:27:52;98121.44;;;0.66;86.04
20079;BME280;10199;48.850;8.924;2023-11-22T09:30:24;98113.88;;;0.86;86.12
20079;BME280;10199;48.850;8.924;2023-11-22T09:33:05;98131.38;;;0.97;84.98
20079;BME280;10199;48.850;8.924;2023-11-22T09:35:36;98138.13;;;1.23;86.60
20079;BME280;10199;48.850;8.924;2023-11-22T09:38:06;98137.81;;;1.04;85.05
20079;BME280;10199;48.850;8.924;2023-11-22T09:40:40;98137.84;;;1.15;85.25
20079;BME280;10199;48.850;8.924;2023-11-22T09:43:09;98086.88;;;0.63;85.63
20079;BME280;10199;48.850;8.924;2023-11-22T09:45:37;98145.63;;;1.04;84.20
20079;BME280;10199;48.850;8.924;2023-11-22T09:48:14;98103.06;;;0.80;85.16
20079;BME280;10199;48.850;8.924;2023-11-22T09:50:50;98153.22;;;1.07;85.08
20079;BME280;10199;48.850;8.924;2023-11-22T09:53:25;98108.44;;;0.66;86.21
20079;BME280;10199;48.850;8.924;2023-11-22T09:55:58;98196.13;;;1.38;85.28
20079;BME280;10199;48.850;8.924;2023-11-22T09:58:29;98161.19;;;0.93;83.96
20079;BME280;10199;48.850;8.924;2023-11-22T10:00:58;98163.91;;;1.15;85.27
20079;BME280;10199;48.850;8.924;2023-11-22T10:03:27;98169.00;;;0.93;83.65
20079;BME280;10199;48.850;8.924;2023-11-22T10:05:58;98170.94;;;1.02;83.59
20079;BME280;10199;48.850;8.924;2023-11-22T10:08:26;98160.06;;;0.72;85.28
20079;BME280;10199;48.850;8.924;2023-11-22T10:10:56;98101.28;;;0.80;84.49
20079;BME280;10199;48.850;8.924;2023-11-22T10:13:24;98179.06;;;0.98;85.19
20079;BME280;10199;48.850;8.924;2023-11-22T10:15:53;98149.50;;;0.86;85.98
20079;BME280;10199;48.850;8.924;2023-11-22T10:18:21;98182.31;;;1.25;84.39
20079;BME280;10199;48.850;8.924;2023-11-22T10:20:51;98172.84;;;1.24;84.92
20079;BME280;10199;48.850;8.924;2023-11-22T10:23:20;98170.75;;;0.92;84.07
20079;BME280;10199;48.850;8.924;2023-11-22T10:25:52;98170.06;;;1.14;84.95
20079;BME280;10199;48.850;8.924;2023-11-22T10:28:22;98169.50;;;0.98;84.79
20079;BME280;10199;48.850;8.924;2023-11-22T10:30:51;98136.50;;;0.73;84.57
20079;BME280;10199;48.850;8.924;2023-11-22T10:33:20;98208.25;;;1.26;83.26
20079;BME280;10199;48.850;8.924;2023-11-22T10:35:51;98177.44;;;1.20;82.56
20079;BME280;10199;48.850;8.924;2023-11-22T10:38:21;98171.00;;;1.13;82.80
20079;BME280;10199;48.850;8.924;2023-11-22T10:40:49;98165.25;;;1.21;83.47
20079;BME280;10199;48.850;8.924;2023-11-22T10:43:19;98160.19;;;1.31;83.01
20079;BME280;10199;48.850;8.924;2023-11-22T10:45:49;98161.75;;;1.33;83.86
20079;BME280;10199;48.850;8.924;2023-11-22T10:48:20;98165.72;;;1.50;84.14
20079;BME280;10199;48.850;8.924;2023-11-22T10:50:49;98187.69;;;1.35;83.78
20079;BME280;10199;48.850;8.924;2023-11-22T10:53:24;98184.16;;;1.36;84.37
20079;BME280;10199;48.850;8.924;2023-11-22T10:56:03;98189.28;;;1.01;83.80
20079;BME280;10199;48.850;8.924;2023-11-22T10:58:33;98198.06;;;1.47;84.79
20079;BME280;10199;48.850;8.924;2023-11-22T11:01:05;98210.50;;;1.07;83.08
20079;BME280;10199;48.850;8.924;2023-11-22T11:03:37;98211.41;;;1.19;82.65
20079;BME280;10199;48.850;8.924;2023-11-22T11:06:09;98209.31;;;1.48;85.37
20079;BME280;10199;48.850;8.924;2023-11-22T11:08:42;98214.19;;;1.28;82.67
20079;BME280;10199;48.850;8.924;2023-11-22T11:11:12;98207.53;;;1.24;83.00
20079;BME280;10199;48.850;8.924;2023-11-22T11:13:41;98214.34;;;1.14;84.29
20079;BME280;10199;48.850;8.924;2023-11-22T11:16:10;98219.56;;;1.14;84.05
20079;BME280;10199;48.850;8.924;2023-11-22T11:18:39;98218.53;;;1.41;84.67
20079;BME280;10199;48.850;8.924;2023-11-22T11:21:09;98213.25;;;1.53;83.78
20079;BME280;10199;48.850;8.924;2023-11-22T11:23:40;98214.59;;;1.35;84.92
20079;BME280;10199;48.850;8.924;2023-11-22T11:26:14;98224.34;;;1.20;83.89
20079;BME280;10199;48.850;8.924;2023-11-22T11:28:46;98226.84;;;1.46;83.16
20079;BME280;10199;48.850;8.924;2023-11-22T11:31:15;98123.88;;;0.92;84.23
20079;BME280;10199;48.850;8.924;2023-11-22T11:33:54;98226.47;;;1.63;82.94
20079;BME280;10199;48.850;8.924;2023-11-22T11:36:24;98225.06;;;1.70;84.30
20079;BME280;10199;48.850;8.924;2023-11-22T11:38:56;98171.63;;;1.41;84.10
20079;BME280;10199;48.850;8.924;2023-11-22T11:41:26;98163.97;;;1.03;82.16
20079;BME280;10199;48.850;8.924;2023-11-22T11:43:56;98221.31;;;1.50;84.66
20079;BME280;10199;48.850;8.924;2023-11-22T11:46:25;98221.34;;;1.62;83.43
20079;BME280;10199;48.850;8.924;2023-11-22T11:48:54;98238.50;;;1.53;82.96
20079;BME280;10199;48.850;8.924;2023-11-22T11:51:24;98239.44;;;1.52;83.53
20079;BME280;10199;48.850;8.924;2023-11-22T11:53:54;98234.72;;;1.57;83.86
20079;BME280;10199;48.850;8.924;2023-11-22T11:56:23;98244.00;;;1.61;83.38
20079;BME280;10199;48.850;8.924;2023-11-22T11:58:56;98139.56;;;0.67;82.00
20079;BME280;10199;48.850;8.924;2023-11-22T12:01:28;98234.34;;;1.50;83.07
20079;BME280;10199;48.850;8.924;2023-11-22T12:04:00;98213.19;;;1.66;81.72
20079;BME280;10199;48.850;8.924;2023-11-22T12:06:28;98251.25;;;1.45;82.85
20079;BME280;10199;48.850;8.924;2023-11-22T12:09:00;98252.13;;;1.33;82.50
20079;BME280;10199;48.850;8.924;2023-11-22T12:11:29;98266.69;;;1.72;83.65
20079;BME280;10199;48.850;8.924;2023-11-22T12:13:57;98263.91;;;1.62;84.00
20079;BME280;10199;48.850;8.924;2023-11-22T12:16:25;98243.66;;;1.66;81.87
20079;BME280;10199;48.850;8.924;2023-11-22T12:18:54;98232.72;;;1.37;82.31
20079;BME280;10199;48.850;8.924;2023-11-22T12:21:23;98261.44;;;1.48;82.17
20079;BME280;10199;48.850;8.924;2023-11-22T12:23:52;98269.00;;;1.64;84.06
20079;BME280;10199;48.850;8.924;2023-11-22T12:26:23;98278.97;;;1.46;82.68
20079;BME280;10199;48.850;8.924;2023-11-22T12:28:51;98273.38;;;1.63;82.43
20079;BME280;10199;48.850;8.924;2023-11-22T12:31:22;98272.59;;;1.50;82.15
20079;BME280;10199;48.850;8.924;2023-11-22T12:33:52;98276.59;;;1.79;82.13
20079;BME280;10199;48.850;8.924;2023-11-22T12:36:20;98279.94;;;1.69;82.75
20079;BME280;10199;48.850;8.924;2023-11-22T12:38:48;98274.47;;;1.84;81.99
20079;BME280;10199;48.850;8.924;2023-11-22T12:41:16;98270.75;;;1.76;82.34
20079;BME280;10199;48.850;8.924;2023-11-22T12:44:01;98272.22;;;1.67;83.10
20079;BME280;10199;48.850;8.924;2023-11-22T12:46:45;98261.53;;;1.83;82.54
20079;BME280;10199;48.850;8.924;2023-11-22T12:49:13;98266.06;;;1.68;83.64
20079;BME280;10199;48.850;8.924;2023-11-22T12:51:46;98259.50;;;1.75;84.43
20079;BME280;10199;48.850;8.924;2023-11-22T12:54:14;98262.09;;;1.75;83.59
20079;BME280;10199;48.850;8.924;2023-11-22T12:56:42;98255.50;;;1.82;82.56
20079;BME280;10199;48.850;8.924;2023-11-22T12:59:12;98253.94;;;1.80;82.96
20079;BME280;10199;48.850;8.924;2023-11-22T13:01:40;98254.84;;;1.55;84.88
20079;BME280;10199;48.850;8.924;2023-11-22T13:04:08;98247.25;;;1.52;83.83
20079;BME280;10199;48.850;8.924;2023-11-22T13:06:36;98252.59;;;1.50;83.42
20079;BME280;10199;48.850;8.924;2023-11-22T13:09:04;98248.31;;;1.73;85.29
20079;BME280;10199;48.850;8.924;2023-11-22T13:11:33;98254.28;;;1.75;84.97
20079;BME280;10199;48.850;8.924;2023-11-22T13:14:01;98260.56;;;1.60;82.94
20079;BME280;10199;48.850;8.924;2023-11-22T13:16:31;98253.72;;;1.83;83.82
20079;BME280;10199;48.850;8.924;2023-11-22T13:19:00;98252.16;;;1.80;84.81